createdAt,value
2018-09-16T00:00:32.739Z,88.30
2018-09-16T00:03:01.083Z,88.90
2018-09-16T00:05:29.224Z,88.70
2018-09-16T00:07:57.349Z,88.60
2018-09-16T00:10:25.464Z,88.60
2018-09-16T00:12:53.593Z,88.70
2018-09-16T00:15:21.693Z,88.80
2018-09-16T00:17:49.796Z,88.90
2018-09-16T00:20:17.933Z,89.00
2018-09-16T00:22:46.034Z,88.90
2018-09-16T00:25:14.150Z,89.20
2018-09-16T00:27:42.288Z,89.00
2018-09-16T00:30:10.416Z,89.00
2018-09-16T00:32:44.153Z,89.00
2018-09-16T00:35:12.816Z,89.00
2018-09-16T00:37:40.950Z,89.10
2018-09-16T00:40:09.085Z,89.00
2018-09-16T00:42:37.188Z,89.10
2018-09-16T00:45:05.629Z,89.00
2018-09-16T00:47:33.728Z,88.70
2018-09-16T00:50:01.858Z,89.00
2018-09-16T00:52:29.987Z,88.90
2018-09-16T00:54:58.091Z,89.20
2018-09-16T00:57:26.226Z,89.40
2018-09-16T00:59:54.321Z,88.90
2018-09-16T01:02:22.427Z,89.40
2018-09-16T01:04:50.594Z,89.60
2018-09-16T01:07:18.717Z,89.40
2018-09-16T01:09:46.822Z,89.60
2018-09-16T01:12:14.928Z,89.50
2018-09-16T01:14:43.022Z,89.60
2018-09-16T01:17:11.124Z,89.40
2018-09-16T01:19:40.183Z,89.60
2018-09-16T01:22:08.291Z,89.50
2018-09-16T01:24:36.375Z,89.30
2018-09-16T01:27:04.486Z,89.30
2018-09-16T01:29:32.564Z,89.20
2018-09-16T01:32:00.674Z,89.20
2018-09-16T01:34:28.787Z,89.10
2018-09-16T01:36:56.895Z,89.20
2018-09-16T01:39:27.094Z,88.90
2018-09-16T01:41:55.632Z,89.00
2018-09-16T01:44:23.767Z,89.10
2018-09-16T01:46:51.864Z,89.00
2018-09-16T01:49:19.956Z,89.00
2018-09-16T01:51:48.041Z,89.30
2018-09-16T01:54:16.141Z,89.20
2018-09-16T01:56:44.238Z,89.20
2018-09-16T01:59:12.311Z,89.20
2018-09-16T02:01:40.413Z,89.20
2018-09-16T02:04:08.500Z,89.10
2018-09-16T02:06:36.616Z,89.30
2018-09-16T02:09:06.165Z,89.40
2018-09-16T02:11:34.303Z,89.50
2018-09-16T02:14:02.407Z,89.40
2018-09-16T02:16:30.519Z,89.50
2018-09-16T02:18:58.619Z,89.60
2018-09-16T02:21:26.733Z,89.40
2018-09-16T02:23:54.815Z,89.60
2018-09-16T02:26:22.912Z,89.70
2018-09-16T02:28:51.021Z,89.80
2018-09-16T02:31:19.111Z,89.80
2018-09-16T02:33:47.202Z,89.60
2018-09-16T02:36:15.307Z,89.90
2018-09-16T02:38:43.417Z,89.80
2018-09-16T02:41:11.497Z,89.60
2018-09-16T02:43:39.598Z,89.70
2018-09-16T02:46:07.696Z,89.80
2018-09-16T02:48:35.787Z,89.60
2018-09-16T02:51:03.866Z,89.70
2018-09-16T02:53:31.979Z,89.60
2018-09-16T02:56:00.085Z,90.10
2018-09-16T02:58:28.168Z,90.00
2018-09-16T03:00:56.263Z,90.10
2018-09-16T03:03:24.358Z,90.10
2018-09-16T03:05:52.528Z,90.00
2018-09-16T03:08:21.001Z,90.20
2018-09-16T03:10:49.121Z,90.00
2018-09-16T03:13:17.326Z,90.00
2018-09-16T03:15:52.170Z,89.90
2018-09-16T03:18:20.291Z,90.00
2018-09-16T03:20:48.435Z,90.00
2018-09-16T03:23:16.534Z,90.10
2018-09-16T03:25:44.632Z,90.00
2018-09-16T03:28:12.767Z,89.80
2018-09-16T03:30:40.892Z,89.80
2018-09-16T03:33:09.000Z,89.80
2018-09-16T03:35:37.102Z,89.90
2018-09-16T03:38:05.218Z,89.90
2018-09-16T03:40:33.389Z,90.00
2018-09-16T03:43:01.506Z,89.80
2018-09-16T03:45:29.603Z,89.90
2018-09-16T03:47:57.733Z,89.70
2018-09-16T03:50:25.837Z,89.60
2018-09-16T03:52:53.987Z,89.50
2018-09-16T03:55:22.101Z,89.40
2018-09-16T03:57:50.213Z,89.40
2018-09-16T04:00:18.330Z,89.60
2018-09-16T04:02:46.443Z,89.40
2018-09-16T04:05:17.273Z,89.30
2018-09-16T04:07:45.389Z,89.60
2018-09-16T04:10:13.499Z,89.50
2018-09-16T04:12:41.646Z,89.40
2018-09-16T04:15:09.786Z,89.20
2018-09-16T04:17:37.905Z,89.20
2018-09-16T04:20:06.063Z,89.10
2018-09-16T04:22:34.184Z,89.40
2018-09-16T04:25:02.311Z,89.20
2018-09-16T04:27:30.433Z,89.10
2018-09-16T04:29:58.548Z,89.00
2018-09-16T04:32:26.675Z,89.00
2018-09-16T04:34:54.778Z,89.10
2018-09-16T04:37:23.077Z,88.80
2018-09-16T04:39:51.188Z,88.90
2018-09-16T04:42:19.291Z,89.10
2018-09-16T04:44:47.424Z,89.30
2018-09-16T04:47:15.495Z,89.20
2018-09-16T04:49:43.665Z,89.20
2018-09-16T04:52:11.748Z,89.50
2018-09-16T04:54:39.865Z,89.60
2018-09-16T04:57:07.977Z,89.70
2018-09-16T04:59:36.090Z,89.70
2018-09-16T05:02:04.248Z,89.90
2018-09-16T05:04:32.564Z,89.80
2018-09-16T05:07:00.644Z,89.90
2018-09-16T05:09:28.740Z,89.90
2018-09-16T05:11:56.833Z,90.00
2018-09-16T05:14:24.961Z,89.70
2018-09-16T05:16:53.063Z,89.90
2018-09-16T05:19:21.157Z,89.90
2018-09-16T05:21:49.249Z,90.10
2018-09-16T05:24:17.347Z,90.10
2018-09-16T05:26:45.442Z,90.10
2018-09-16T05:29:13.527Z,89.90
2018-09-16T05:31:41.612Z,89.90
2018-09-16T05:34:09.714Z,89.80
2018-09-16T05:36:37.808Z,89.90
2018-09-16T05:39:07.647Z,90.10
2018-09-16T05:41:35.727Z,90.00
2018-09-16T05:44:04.060Z,90.00
2018-09-16T05:46:32.149Z,90.10
2018-09-16T05:49:00.259Z,90.10
2018-09-16T05:51:28.343Z,89.90
2018-09-16T05:53:56.458Z,89.90
2018-09-16T05:56:24.716Z,89.80
2018-09-16T05:58:52.993Z,89.20
2018-09-16T06:01:21.076Z,88.40
2018-09-16T06:03:49.167Z,87.50
2018-09-16T06:06:17.273Z,86.40
2018-09-16T06:08:45.365Z,85.50
2018-09-16T06:11:13.436Z,84.90
2018-09-16T06:13:41.554Z,84.70
2018-09-16T06:16:16.336Z,85.10
2018-09-16T06:18:44.432Z,84.60
2018-09-16T06:21:12.524Z,84.80
2018-09-16T06:23:40.669Z,84.70
2018-09-16T06:26:08.755Z,84.00
2018-09-16T06:28:36.861Z,84.00
2018-09-16T06:31:04.970Z,84.10
2018-09-16T06:33:33.119Z,83.90
2018-09-16T06:36:01.204Z,83.30
2018-09-16T06:38:29.297Z,83.60
2018-09-16T06:40:57.387Z,83.20
2018-09-16T06:43:25.485Z,83.90
2018-09-16T06:45:53.597Z,84.30
2018-09-16T06:48:21.694Z,83.10
2018-09-16T06:50:49.884Z,83.30
2018-09-16T06:53:17.885Z,83.10
2018-09-16T06:55:46.005Z,83.80
2018-09-16T06:58:14.114Z,83.60
2018-09-16T07:00:42.253Z,82.80
2018-09-16T07:03:10.330Z,81.40
2018-09-16T07:05:38.445Z,81.80
2018-09-16T07:08:06.585Z,81.70
2018-09-16T07:10:34.806Z,81.60
2018-09-16T07:13:02.921Z,80.60
2018-09-16T07:15:31.273Z,80.90
2018-09-16T07:17:59.369Z,80.40
2018-09-16T07:20:27.477Z,80.90
2018-09-16T07:22:55.590Z,80.60
2018-09-16T07:25:23.811Z,80.90
2018-09-16T07:27:51.912Z,80.10
2018-09-16T07:30:20.062Z,81.10
2018-09-16T07:32:48.164Z,79.50
2018-09-16T07:35:16.279Z,78.80
2018-09-16T07:37:44.396Z,77.80
2018-09-16T07:40:12.515Z,76.70
2018-09-16T07:42:40.611Z,77.50
2018-09-16T07:45:08.756Z,76.80
2018-09-16T07:47:36.856Z,75.80
2018-09-16T07:50:04.990Z,74.40
2018-09-16T07:52:33.109Z,73.30
2018-09-16T07:55:01.247Z,72.40
2018-09-16T07:57:29.513Z,72.20
2018-09-16T07:59:57.625Z,71.10
2018-09-16T08:02:25.720Z,71.10
2018-09-16T08:04:53.837Z,70.60
2018-09-16T08:07:21.947Z,69.90
2018-09-16T08:09:50.058Z,69.10
2018-09-16T08:12:18.168Z,69.90
2018-09-16T08:14:46.272Z,68.20
2018-09-16T08:17:14.388Z,67.50
2018-09-16T08:19:42.503Z,68.50
2018-09-16T08:22:10.592Z,67.20
2018-09-16T08:24:38.684Z,66.10
2018-09-16T08:27:06.784Z,67.20
2018-09-16T08:29:34.903Z,67.60
2018-09-16T08:32:03.017Z,65.40
2018-09-16T08:34:31.149Z,65.20
2018-09-16T08:36:59.282Z,65.00
2018-09-16T08:39:27.417Z,64.80
2018-09-16T08:41:55.516Z,63.70
2018-09-16T08:44:23.613Z,64.10
2018-09-16T08:46:51.732Z,64.80
2018-09-16T08:49:19.837Z,64.40
2018-09-16T08:51:50.937Z,64.50
2018-09-16T08:54:19.073Z,65.10
2018-09-16T08:56:47.177Z,64.10
2018-09-16T08:59:15.301Z,63.30
2018-09-16T09:01:43.396Z,63.80
2018-09-16T09:04:11.561Z,63.30
2018-09-16T09:06:39.657Z,63.10
2018-09-16T09:09:09.186Z,62.50
2018-09-16T09:11:37.314Z,62.40
2018-09-16T09:14:05.407Z,62.50
2018-09-16T09:16:33.537Z,62.40
2018-09-16T09:19:01.634Z,61.50
2018-09-16T09:21:29.757Z,61.20
2018-09-16T09:23:57.861Z,61.50
2018-09-16T09:26:25.988Z,61.10
2018-09-16T09:28:54.136Z,61.60
2018-09-16T09:31:22.205Z,62.10
2018-09-16T09:33:50.317Z,61.50
2018-09-16T09:36:18.478Z,61.80
2018-09-16T09:38:46.568Z,61.50
2018-09-16T09:41:14.710Z,61.30
2018-09-16T09:43:42.806Z,61.10
2018-09-16T09:46:10.910Z,61.40
2018-09-16T09:48:39.032Z,60.70
2018-09-16T09:51:07.330Z,61.30
2018-09-16T09:53:35.427Z,61.00
2018-09-16T09:56:03.532Z,59.50
2018-09-16T09:58:31.623Z,60.50
2018-09-16T10:00:59.731Z,59.00
2018-09-16T10:03:27.838Z,59.40
2018-09-16T10:05:56.012Z,59.00
2018-09-16T10:08:24.073Z,59.30
2018-09-16T10:10:52.156Z,59.20
2018-09-16T10:13:20.254Z,58.60
2018-09-16T10:15:48.329Z,58.70
2018-09-16T10:18:16.412Z,58.60
2018-09-16T10:20:44.503Z,59.20
2018-09-16T10:23:12.606Z,58.60
2018-09-16T10:25:40.713Z,58.30
2018-09-16T10:28:08.788Z,59.10
2018-09-16T10:30:36.867Z,57.40
2018-09-16T10:33:05.009Z,57.40
2018-09-16T10:35:33.067Z,57.20
2018-09-16T10:38:01.209Z,57.10
2018-09-16T10:40:29.317Z,56.00
2018-09-16T10:42:57.411Z,56.40
2018-09-16T10:45:25.514Z,57.50
2018-09-16T10:47:53.613Z,56.10
2018-09-16T10:50:21.705Z,57.20
2018-09-16T10:52:49.830Z,57.20
2018-09-16T10:55:17.903Z,56.30
2018-09-16T10:57:45.991Z,55.40
2018-09-16T11:00:14.060Z,55.30
2018-09-16T11:02:42.135Z,55.10
2018-09-16T11:05:10.230Z,54.70
2018-09-16T11:07:38.452Z,54.70
2018-09-16T11:10:06.535Z,54.60
2018-09-16T11:12:34.690Z,56.00
2018-09-16T11:15:03.188Z,54.80
2018-09-16T11:17:31.821Z,55.10
2018-09-16T11:20:00.680Z,55.70
2018-09-16T11:22:28.782Z,55.60
2018-09-16T11:24:56.873Z,55.40
2018-09-16T11:27:24.956Z,55.10
2018-09-16T11:29:53.069Z,56.40
2018-09-16T11:32:21.129Z,56.40
2018-09-16T11:34:49.260Z,55.80
2018-09-16T11:37:17.370Z,56.50
2018-09-16T11:39:45.444Z,55.10
2018-09-16T11:42:13.596Z,55.50
2018-09-16T11:44:41.663Z,53.80
2018-09-16T11:47:09.754Z,55.60
2018-09-16T11:49:37.832Z,54.40
2018-09-16T11:52:05.928Z,54.80
2018-09-16T11:54:34.017Z,55.10
2018-09-16T11:57:02.137Z,55.00
2018-09-16T11:59:30.238Z,53.70
2018-09-16T12:01:58.367Z,53.50
2018-09-16T12:04:26.411Z,53.70
2018-09-16T12:06:54.506Z,54.00
2018-09-16T12:09:22.584Z,55.20
2018-09-16T12:11:50.689Z,54.70
2018-09-16T12:14:18.788Z,54.10
2018-09-16T12:16:46.962Z,55.40
2018-09-16T12:19:14.981Z,55.60
2018-09-16T12:21:43.076Z,55.40
2018-09-16T12:24:11.173Z,55.80
2018-09-16T12:26:39.265Z,54.70
2018-09-16T12:29:07.368Z,54.80
2018-09-16T12:31:35.461Z,55.00
2018-09-16T12:34:03.548Z,56.00
2018-09-16T12:36:31.671Z,57.10
2018-09-16T12:38:59.772Z,55.80
2018-09-16T12:41:27.856Z,54.40
2018-09-16T12:43:55.961Z,55.20
2018-09-16T12:46:24.037Z,54.80
2018-09-16T12:48:52.128Z,54.10
2018-09-16T12:51:20.210Z,53.80
2018-09-16T12:53:49.360Z,54.70
2018-09-16T12:56:17.449Z,54.30
2018-09-16T12:58:45.550Z,53.90
2018-09-16T13:01:13.641Z,53.40
2018-09-16T13:03:41.781Z,54.10
2018-09-16T13:06:09.894Z,54.20
2018-09-16T13:08:38.013Z,54.80
2018-09-16T13:11:06.117Z,53.80
2018-09-16T13:13:34.256Z,54.60
2018-09-16T13:16:02.316Z,53.90
2018-09-16T13:18:31.220Z,53.50
2018-09-16T13:20:59.385Z,53.10
2018-09-16T13:23:27.505Z,53.10
2018-09-16T13:25:55.596Z,52.70
2018-09-16T13:28:24.008Z,53.10
2018-09-16T13:30:52.137Z,52.40
2018-09-16T13:33:20.236Z,52.40
2018-09-16T13:35:48.336Z,52.10
2018-09-16T13:38:16.565Z,53.00
2018-09-16T13:40:44.558Z,52.00
2018-09-16T13:43:12.690Z,52.70
2018-09-16T13:45:40.874Z,53.00
2018-09-16T13:48:08.942Z,52.40
2018-09-16T13:50:37.029Z,52.90
2018-09-16T13:53:05.136Z,52.10
2018-09-16T13:55:33.535Z,51.80
2018-09-16T13:58:01.643Z,52.00
2018-09-16T14:00:29.751Z,52.80
2018-09-16T14:02:57.874Z,51.90
2018-09-16T14:05:26.179Z,52.30
2018-09-16T14:07:54.264Z,52.50
2018-09-16T14:10:22.365Z,52.20
2018-09-16T14:12:50.443Z,52.10
2018-09-16T14:15:18.548Z,51.90
2018-09-16T14:17:46.621Z,52.20
2018-09-16T14:20:14.717Z,51.70
2018-09-16T14:22:42.800Z,52.00
2018-09-16T14:25:10.912Z,52.10
2018-09-16T14:27:38.990Z,52.00
2018-09-16T14:30:07.097Z,52.40
2018-09-16T14:32:35.178Z,52.40
2018-09-16T14:35:03.272Z,53.60
2018-09-16T14:37:31.352Z,53.40
2018-09-16T14:39:59.437Z,52.80
2018-09-16T14:42:27.541Z,52.40
2018-09-16T14:44:55.611Z,51.80
2018-09-16T14:47:23.706Z,52.10
2018-09-16T14:49:51.895Z,52.10
2018-09-16T14:52:20.049Z,51.70
2018-09-16T14:54:48.139Z,52.40
2018-09-16T14:59:51.017Z,52.00
2018-09-16T15:02:19.108Z,51.70
2018-09-16T15:04:47.330Z,51.70
2018-09-16T15:07:15.432Z,52.00
2018-09-16T15:09:43.531Z,51.50
2018-09-16T15:12:11.723Z,51.10
2018-09-16T15:14:39.908Z,51.70
2018-09-16T15:17:08.014Z,51.80
2018-09-16T15:19:36.146Z,52.10
2018-09-16T15:22:04.249Z,51.20
2018-09-16T15:24:32.368Z,52.20
2018-09-16T15:27:00.641Z,51.70
2018-09-16T15:29:28.731Z,51.20
2018-09-16T15:31:56.836Z,50.80
2018-09-16T15:34:24.971Z,51.10
2018-09-16T15:36:53.086Z,51.00
2018-09-16T15:39:21.296Z,50.80
2018-09-16T15:41:49.450Z,50.80
2018-09-16T15:44:17.662Z,50.80
2018-09-16T15:46:45.752Z,52.20
2018-09-16T15:49:13.973Z,52.40
2018-09-16T15:51:42.083Z,53.30
2018-09-16T15:54:10.266Z,52.90
2018-09-16T15:56:38.461Z,52.70
2018-09-16T15:59:06.562Z,52.00
2018-09-16T16:01:34.668Z,52.00
2018-09-16T16:04:02.776Z,52.10
2018-09-16T16:06:30.941Z,52.10
2018-09-16T16:08:59.068Z,52.20
2018-09-16T16:11:27.156Z,52.40
2018-09-16T16:13:55.238Z,52.50
2018-09-16T16:16:23.446Z,52.50
2018-09-16T16:18:51.428Z,52.60
2018-09-16T16:21:19.663Z,53.90
2018-09-16T16:23:47.798Z,53.00
2018-09-16T16:26:15.911Z,54.20
2018-09-16T16:28:44.042Z,54.90
2018-09-16T16:31:12.079Z,56.00
2018-09-16T16:33:40.351Z,54.80
2018-09-16T16:36:08.513Z,55.60
2018-09-16T16:38:36.617Z,55.00
2018-09-16T16:41:04.870Z,56.10
2018-09-16T16:43:32.989Z,56.20
2018-09-16T16:46:15.683Z,56.30
2018-09-16T16:48:43.767Z,57.20
2018-09-16T16:51:12.982Z,56.90
2018-09-16T16:53:41.078Z,58.60
2018-09-16T16:56:09.298Z,58.60
2018-09-16T16:58:37.467Z,58.20
2018-09-16T17:01:05.629Z,58.20
2018-09-16T17:03:34.628Z,58.70
2018-09-16T17:06:02.954Z,61.00
2018-09-16T17:08:31.044Z,61.30
2018-09-16T17:10:59.213Z,61.90
2018-09-16T17:13:27.347Z,61.80
2018-09-16T17:15:55.446Z,62.60
2018-09-16T17:18:23.568Z,63.30
2018-09-16T17:20:51.685Z,63.30
2018-09-16T17:23:19.793Z,63.70
2018-09-16T17:25:47.992Z,64.40
2018-09-16T17:28:16.098Z,65.10
2018-09-16T17:30:44.207Z,64.70
2018-09-16T17:33:12.310Z,64.50
2018-09-16T17:35:40.445Z,64.40
2018-09-16T17:38:08.541Z,65.30
2018-09-16T17:40:36.647Z,66.30
2018-09-16T17:43:04.839Z,66.20
2018-09-16T17:45:33.198Z,66.00
2018-09-16T17:48:01.448Z,65.90
2018-09-16T17:50:30.154Z,65.70
2018-09-16T17:52:58.715Z,65.90
2018-09-16T17:55:27.008Z,64.60
2018-09-16T17:57:55.295Z,66.40
2018-09-16T18:00:23.456Z,67.10
2018-09-16T18:02:51.649Z,67.30
2018-09-16T18:05:19.765Z,67.10
2018-09-16T18:07:47.869Z,67.20
2018-09-16T18:10:16.089Z,67.50
2018-09-16T18:12:44.233Z,67.70
2018-09-16T18:15:13.318Z,68.00
2018-09-16T18:17:41.628Z,68.20
2018-09-16T18:20:10.052Z,68.40
2018-09-16T18:22:38.166Z,68.70
2018-09-16T18:25:06.381Z,69.20
2018-09-16T18:27:34.883Z,69.50
2018-09-16T18:30:03.109Z,69.80
2018-09-16T18:32:31.359Z,70.00
2018-09-16T18:34:59.461Z,69.90
2018-09-16T18:37:27.803Z,70.00
2018-09-16T18:39:56.041Z,70.40
2018-09-16T18:42:25.097Z,69.80
2018-09-16T18:44:55.167Z,70.60
2018-09-16T18:47:23.748Z,69.50
2018-09-16T18:49:54.315Z,69.20
2018-09-16T18:52:24.320Z,69.10
2018-09-16T18:54:52.645Z,70.40
2018-09-16T18:57:20.790Z,69.40
2018-09-16T18:59:48.881Z,68.00
2018-09-16T19:02:17.049Z,68.70
2018-09-16T19:04:45.166Z,68.10
2018-09-16T19:07:14.277Z,68.40
2018-09-16T19:09:42.579Z,68.20
2018-09-16T19:12:10.656Z,67.80
2018-09-16T19:14:38.768Z,67.60
2018-09-16T19:17:06.908Z,67.60
2018-09-16T19:19:35.226Z,67.50
2018-09-16T19:22:03.736Z,67.40
2018-09-16T19:24:32.069Z,68.00
2018-09-16T19:27:06.620Z,67.90
2018-09-16T19:29:35.389Z,67.90
2018-09-16T19:32:03.980Z,67.50
2018-09-16T19:34:32.868Z,67.80
2018-09-16T19:37:01.462Z,68.20
2018-09-16T19:39:30.122Z,68.00
2018-09-16T19:41:58.803Z,68.10
2018-09-16T19:44:26.972Z,67.70
2018-09-16T19:46:55.362Z,67.80
2018-09-16T19:49:23.738Z,67.40
2018-09-16T19:51:52.225Z,67.50
2018-09-16T19:54:20.735Z,68.20
2018-09-16T19:56:48.895Z,68.20
2018-09-16T19:59:16.996Z,68.20
2018-09-16T20:01:45.355Z,68.40
2018-09-16T20:04:13.467Z,68.50
2018-09-16T20:06:42.003Z,68.40
2018-09-16T20:09:11.701Z,68.70
2018-09-16T20:11:40.221Z,68.90
2018-09-16T20:14:09.121Z,68.80
2018-09-16T20:16:37.218Z,68.70
2018-09-16T20:19:05.560Z,68.80
2018-09-16T20:21:33.847Z,68.50
2018-09-16T20:24:02.050Z,69.00
2018-09-16T20:26:30.128Z,68.90
2018-09-16T20:28:58.229Z,68.70
2018-09-16T20:31:26.386Z,68.70
2018-09-16T20:33:54.496Z,68.80
2018-09-16T20:36:22.589Z,69.40
2018-09-16T20:38:50.791Z,69.50
2018-09-16T20:41:19.308Z,69.50
2018-09-16T20:43:48.028Z,69.50
2018-09-16T20:46:16.262Z,68.90
2018-09-16T20:48:44.452Z,69.10
2018-09-16T20:51:12.786Z,69.00
2018-09-16T20:53:41.009Z,68.90
2018-09-16T20:56:09.138Z,68.90
2018-09-16T20:58:37.248Z,68.50
2018-09-16T21:01:05.375Z,69.20
2018-09-16T21:03:33.492Z,71.00
2018-09-16T21:06:01.876Z,70.10
2018-09-16T21:08:30.086Z,71.10
2018-09-16T21:10:58.173Z,72.30
2018-09-16T21:13:26.368Z,72.20
2018-09-16T21:15:54.448Z,72.80
2018-09-16T21:18:22.783Z,73.30
2018-09-16T21:20:50.856Z,73.20
2018-09-16T21:23:18.970Z,73.30
2018-09-16T21:25:47.373Z,73.30
2018-09-16T21:28:15.353Z,73.10
2018-09-16T21:30:43.439Z,73.30
2018-09-16T21:33:11.521Z,72.40
2018-09-16T21:35:39.621Z,72.70
2018-09-16T21:38:07.711Z,73.20
2018-09-16T21:40:35.869Z,74.50
2018-09-16T21:43:04.112Z,75.00
2018-09-16T21:45:32.342Z,75.30
2018-09-16T21:48:00.547Z,75.30
2018-09-16T21:50:28.688Z,75.70
2018-09-16T21:52:56.901Z,75.90
2018-09-16T21:55:24.994Z,76.00
2018-09-16T21:57:53.124Z,76.20
2018-09-16T22:00:21.242Z,76.00
2018-09-16T22:02:49.330Z,76.30
2018-09-16T22:05:17.453Z,76.50
2018-09-16T22:07:45.540Z,76.50
2018-09-16T22:10:13.668Z,76.90
2018-09-16T22:12:41.792Z,76.70
2018-09-16T22:15:09.902Z,74.70
2018-09-16T22:17:37.990Z,76.90
2018-09-16T22:20:06.102Z,76.90
2018-09-16T22:22:34.230Z,76.50
2018-09-16T22:25:02.348Z,77.20
2018-09-16T22:27:30.445Z,77.40
2018-09-16T22:29:58.535Z,77.40
2018-09-16T22:32:26.715Z,77.60
2018-09-16T22:34:54.847Z,77.90
2018-09-16T22:37:23.021Z,78.00
2018-09-16T22:39:51.110Z,77.90
2018-09-16T22:42:19.273Z,77.80
2018-09-16T22:44:47.391Z,77.90
2018-09-16T22:47:15.498Z,78.00
2018-09-16T22:49:43.740Z,78.20
2018-09-16T22:52:11.836Z,78.30
2018-09-16T22:54:39.948Z,78.10
2018-09-16T22:57:08.044Z,77.90
2018-09-16T22:59:36.155Z,78.00
2018-09-16T23:02:04.254Z,78.10
2018-09-16T23:04:32.383Z,78.20
2018-09-16T23:07:00.481Z,78.50
2018-09-16T23:09:28.569Z,78.70
2018-09-16T23:11:56.662Z,78.70
2018-09-16T23:14:24.770Z,78.90
2018-09-16T23:16:52.857Z,79.00
2018-09-16T23:19:20.954Z,78.90
2018-09-16T23:21:49.041Z,79.10
2018-09-16T23:24:17.126Z,79.30
2018-09-16T23:26:45.212Z,79.30
2018-09-16T23:29:13.304Z,79.60
2018-09-16T23:31:41.387Z,79.50
2018-09-16T23:34:09.463Z,79.50
2018-09-16T23:36:37.561Z,79.60
2018-09-16T23:39:07.491Z,79.70
2018-09-16T23:41:35.560Z,79.80
2018-09-16T23:44:03.665Z,79.90
2018-09-16T23:46:31.768Z,80.00
2018-09-16T23:48:59.844Z,80.00
2018-09-16T23:51:27.934Z,80.10
2018-09-16T23:53:56.042Z,80.00
2018-09-16T23:56:24.128Z,80.60
2018-09-16T23:58:52.219Z,80.60
